Time;durP1;ratioP1;P1;durP2;ratioP2;P2;SDS_P1;SDS_P2;PMS_P1;PMS_P2;Temp;Humidity;BMP_temperature;BMP_pressure;BME280_temperature;BME280_humidity;BME280_pressure;Samples;Min_cycle;Max_cycle;Signal;HPM_P1;HPM_P2
2022/05/21 00:00:29;;;;;;;;;;;;;;;19.20;64.44;101603.91;1044778;28;656;-60
2022/05/21 00:01:19;;;;;;;;;;;;;;;19.19;64.60;101611.19;1044668;28;685;-60
2022/05/21 00:02:10;;;;;;;;;;;;;;;19.19;64.58;101600.38;1044582;28;717;-60
2022/05/21 00:03:00;;;;;;;;;;;;;;;19.19;65.01;101605.78;1044725;28;653;-60
2022/05/21 00:03:51;;;;;;;;;;;;;;;19.19;64.66;101607.63;1044599;28;650;-60
2022/05/21 00:04:42;;;;;;;;;;;;;;;19.17;64.53;101601.53;1042086;28;1807;-61
2022/05/21 00:05:33;;;;;;;;;;;;;;;19.17;64.87;101599.66;1041739;28;712;-60
2022/05/21 00:06:23;;;;;;;;;;;;;;;19.18;65.49;101589.69;1041572;28;1673;-61
2022/05/21 00:07:14;;;;;;;;;;;;;;;19.18;64.66;101597.78;1045376;28;814;-61
2022/05/21 00:08:04;;;;;;;;;;;;;;;19.19;64.52;101591.41;1044156;28;689;-60
2022/05/21 00:08:55;;;;;;;;;;;;;;;19.18;64.53;101600.50;1045056;28;629;-61
2022/05/21 00:09:45;;;;;;;;;;;;;;;19.17;64.66;101605.03;1044524;28;634;-61
2022/05/21 00:10:35;;;;;;;;;;;;;;;19.17;65.18;101602.34;1043837;28;1557;-60
2022/05/21 00:11:26;;;;;;;;;;;;;;;19.17;64.27;101596.13;1040393;28;634;-60
2022/05/21 00:12:16;;;;;;;;;;;;;;;19.16;64.53;101607.91;1040176;28;657;-59
2022/05/21 00:13:07;;;;;;;;;;;;;;;19.17;64.64;101604.22;1040683;28;662;-60
2022/05/21 00:13:57;;;;;;;;;;;;;;;19.16;65.22;101589.84;1037165;28;622;-59
2022/05/21 00:14:48;;;;;;;;;;;;;;;19.16;64.55;101591.69;1039921;28;725;-60
2022/05/21 00:15:38;;;;;;;;;;;;;;;19.16;64.50;101589.84;1043209;28;771;-60
2022/05/21 00:16:29;;;;;;;;;;;;;;;19.15;65.26;101596.25;1045168;28;1661;-59
2022/05/21 00:17:19;;;;;;;;;;;;;;;19.15;64.59;101590.00;1047527;28;802;-59
2022/05/21 00:18:10;;;;;;;;;;;;;;;19.15;64.77;101596.25;1049353;28;671;-59
2022/05/21 00:19:00;;;;;;;;;;;;;;;19.16;64.53;101599.81;1040220;28;1603;-61
2022/05/21 00:19:50;;;;;;;;;;;;;;;19.14;65.00;101593.69;1036253;28;665;-60
2022/05/21 00:20:47;;;;;;;;;;;;;;;19.14;64.58;101594.53;1037754;28;643;-60
2022/05/21 00:21:37;;;;;;;;;;;;;;;19.13;64.44;101598.22;1037192;28;680;-60
2022/05/21 00:22:28;;;;;;;;;;;;;;;19.14;64.49;101599.94;1038142;28;624;-60
2022/05/21 00:23:18;;;;;;;;;;;;;;;19.15;65.03;101595.41;1041636;28;716;-60
2022/05/21 00:24:09;;;;;;;;;;;;;;;19.14;64.65;101585.56;1041549;28;1885;-60
2022/05/21 00:24:59;;;;;;;;;;;;;;;19.13;64.84;101597.38;1041768;28;1676;-60
2022/05/21 00:25:49;;;;;;;;;;;;;;;19.16;65.10;101586.31;1042115;28;645;-59
2022/05/21 00:26:40;;;;;;;;;;;;;;;19.15;64.48;101587.28;1041495;28;673;-60
2022/05/21 00:27:30;;;;;;;;;;;;;;;19.14;64.84;101583.72;1041597;28;743;-60
2022/05/21 00:28:21;;;;;;;;;;;;;;;19.13;65.16;101583.88;1037841;28;696;-60
2022/05/21 00:29:11;;;;;;;;;;;;;;;19.13;64.36;101583.88;1037125;28;745;-60
2022/05/21 00:30:01;;;;;;;;;;;;;;;19.12;64.78;101590.25;1036992;28;662;-60
2022/05/21 00:30:52;;;;;;;;;;;;;;;19.11;64.91;101592.09;1037338;28;867;-60
2022/05/21 00:31:42;;;;;;;;;;;;;;;19.11;65.10;101592.09;1036577;28;697;-59
2022/05/21 00:32:33;;;;;;;;;;;;;;;19.11;65.26;101592.09;1037130;28;693;-60
2022/05/21 00:33:23;;;;;;;;;;;;;;;19.12;64.53;101593.81;1036603;28;646;-60
2022/05/21 00:34:14;;;;;;;;;;;;;;;19.12;64.54;101595.66;1036747;28;693;-61
2022/05/21 00:35:04;;;;;;;;;;;;;;;19.12;64.37;101584.84;1043604;28;1677;-60
2022/05/21 00:35:54;;;;;;;;;;;;;;;19.14;65.00;101593.69;1044470;28;662;-60
2022/05/21 00:36:45;;;;;;;;;;;;;;;19.14;64.93;101589.13;1043124;28;1337;-60
2022/05/21 00:37:35;;;;;;;;;;;;;;;19.13;64.73;101594.69;1040334;28;622;-60
2022/05/21 00:38:26;;;;;;;;;;;;;;;19.13;64.39;101591.97;1041539;28;712;-61
2022/05/21 00:39:16;;;;;;;;;;;;;;;19.11;64.51;101592.09;1040305;28;1639;-61
2022/05/21 00:40:06;;;;;;;;;;;;;;;19.10;64.26;101600.34;1039862;28;1521;-61
2022/05/21 00:40:57;;;;;;;;;;;;;;;19.09;64.64;101596.78;1042011;28;696;-61
2022/05/21 00:41:48;;;;;;;;;;;;;;;19.10;64.94;101603.91;1041618;28;700;-61
2022/05/21 00:42:38;;;;;;;;;;;;;;;19.10;64.35;101600.34;1040886;28;673;-61
2022/05/21 00:43:29;;;;;;;;;;;;;;;19.10;64.47;101608.44;1040117;28;673;-61
2022/05/21 00:44:19;;;;;;;;;;;;;;;19.08;64.77;101604.03;1041545;28;1978;-61
2022/05/21 00:45:10;;;;;;;;;;;;;;;19.08;64.28;101597.78;1044570;28;704;-61
2022/05/21 00:46:00;;;;;;;;;;;;;;;19.08;64.10;101603.19;1044937;28;645;-61
2022/05/21 00:46:51;;;;;;;;;;;;;;;19.07;64.41;101605.03;1044511;28;669;-60
2022/05/21 00:47:41;;;;;;;;;;;;;;;19.07;64.71;101604.16;1038104;28;626;-62
2022/05/21 00:48:31;;;;;;;;;;;;;;;19.06;64.91;101600.63;1037860;28;1202;-60
2022/05/21 00:49:22;;;;;;;;;;;;;;;19.06;65.12;101608.72;1036220;28;1716;-60
2022/05/21 00:50:12;;;;;;;;;;;;;;;19.08;64.13;101613.97;1039606;28;1552;-61
2022/05/21 00:51:03;;;;;;;;;;;;;;;19.07;64.68;101609.56;1040855;28;694;-61
2022/05/21 00:51:53;;;;;;;;;;;;;;;19.06;65.16;101610.56;1040777;28;696;-60
2022/05/21 00:52:44;;;;;;;;;;;;;;;19.06;64.90;101608.72;1041332;28;738;-61
2022/05/21 00:53:34;;;;;;;;;;;;;;;19.08;64.48;101598.63;1044097;28;660;-60
2022/05/21 00:54:25;;;;;;;;;;;;;;;19.05;64.05;101603.44;1044544;28;676;-60
2022/05/21 00:55:15;;;;;;;;;;;;;;;19.07;64.42;101602.31;1044328;28;618;-60
2022/05/21 00:56:05;;;;;;;;;;;;;;;19.06;64.29;101608.72;1040200;28;741;-60
2022/05/21 00:56:56;;;;;;;;;;;;;;;19.04;64.74;101597.19;1044088;28;1532;-60
2022/05/21 00:57:46;;;;;;;;;;;;;;;19.04;64.71;101605.28;1044290;28;638;-60
2022/05/21 00:59:49;;;;;;;;;;;;;;;19.03;65.20;101611.69;1041967;28;1581;-61
2022/05/21 01:00:39;;;;;;;;;;;;;;;19.02;64.38;101606.41;1044475;28;665;-61
2022/05/21 01:01:30;;;;;;;;;;;;;;;19.04;64.83;101602.59;1044242;28;635;-61
2022/05/21 01:02:20;;;;;;;;;;;;;;;19.02;64.69;101604.56;1045471;28;688;-60
2022/05/21 01:03:11;;;;;;;;;;;;;;;19.02;64.97;101609.97;1040614;28;709;-60
2022/05/21 01:04:01;;;;;;;;;;;;;;;19.01;64.51;101602.84;1041256;28;1903;-60
2022/05/21 01:04:51;;;;;;;;;;;;;;;19.02;64.30;101607.28;1041336;28;736;-60
2022/05/21 01:05:42;;;;;;;;;;;;;;;19.04;64.38;101609.84;1040937;28;669;-60
2022/05/21 01:06:32;;;;;;;;;;;;;;;19.03;64.82;101608.13;1041279;28;681;-60
2022/05/21 01:07:25;;;;;;;;;;;;;;;19.02;64.11;101603.72;1040452;28;1788;-61
2022/05/21 01:08:15;;;;;;;;;;;;;;;19.01;64.66;101615.50;1040378;28;1353;-60
2022/05/21 01:09:05;;;;;;;;;;;;;;;19.02;64.82;101604.56;1044408;28;602;-60
2022/05/21 01:09:56;;;;;;;;;;;;;;;19.01;65.05;101607.41;1041056;28;1540;-59
2022/05/21 01:10:46;;;;;;;;;;;;;;;19.00;65.07;101603.84;1041386;28;641;-61
2022/05/21 01:11:37;;;;;;;;;;;;;;;19.00;64.95;101611.94;1042232;28;1513;-61
2022/05/21 01:12:27;;;;;;;;;;;;;;;19.00;64.49;101606.53;1041884;28;739;-61
2022/05/21 01:13:18;;;;;;;;;;;;;;;19.00;64.97;101600.28;1041907;28;653;-60
2022/05/21 01:14:08;;;;;;;;;;;;;;;19.01;64.29;101604.69;1041971;28;594;-61
2022/05/21 01:14:59;;;;;;;;;;;;;;;19.00;63.97;101595.75;1041295;28;696;-61
2022/05/21 01:15:49;;;;;;;;;;;;;;;19.01;64.71;101602.00;1041445;28;697;-62
2022/05/21 01:16:40;;;;;;;;;;;;;;;19.00;65.14;101601.16;1041288;28;649;-62
2022/05/21 01:17:30;;;;;;;;;;;;;;;18.99;64.40;101602.13;1041312;28;677;-62
2022/05/21 01:18:21;;;;;;;;;;;;;;;19.00;64.74;101603.00;1041357;28;618;-62
2022/05/21 01:19:12;;;;;;;;;;;;;;;19.00;64.26;101600.28;1041404;28;735;-60
2022/05/21 01:20:03;;;;;;;;;;;;;;;18.98;64.70;101597.75;1041435;28;665;-60
2022/05/21 01:20:53;;;;;;;;;;;;;;;18.99;64.67;101601.28;1039702;28;1499;-60
2022/05/21 01:21:44;;;;;;;;;;;;;;;18.99;63.92;101602.13;1036946;28;665;-60
2022/05/21 01:22:34;;;;;;;;;;;;;;;18.98;64.51;101597.75;1040957;28;692;-61
2022/05/21 01:23:25;;;;;;;;;;;;;;;18.99;63.98;101595.88;1041180;28;1720;-61
2022/05/21 01:24:15;;;;;;;;;;;;;;;18.98;64.71;101595.06;1044163;28;1945;-61
2022/05/21 01:25:05;;;;;;;;;;;;;;;18.99;64.55;101594.03;1045466;28;767;-61
2022/05/21 01:25:56;;;;;;;;;;;;;;;19.00;64.31;101595.75;1044146;28;654;-61
2022/05/21 01:26:46;;;;;;;;;;;;;;;19.01;64.41;101604.69;1045460;28;645;-61
2022/05/21 01:27:37;;;;;;;;;;;;;;;18.98;63.89;101589.66;1043452;28;652;-61
2022/05/21 01:28:27;;;;;;;;;;;;;;;18.99;64.68;101590.47;1040524;28;732;-61
2022/05/21 01:29:17;;;;;;;;;;;;;;;18.98;64.65;101600.44;1041678;28;757;-61
2022/05/21 01:30:08;;;;;;;;;;;;;;;18.99;64.23;101594.03;1037132;28;656;-61
2022/05/21 01:30:58;;;;;;;;;;;;;;;18.98;63.86;101589.66;1037826;28;692;-61
2022/05/21 01:31:49;;;;;;;;;;;;;;;19.00;64.33;101594.88;1036829;28;689;-61
2022/05/21 01:32:39;;;;;;;;;;;;;;;18.99;64.33;101594.03;1040482;28;1481;-61
2022/05/21 01:33:30;;;;;;;;;;;;;;;18.98;64.34;101603.16;1041334;28;673;-61
2022/05/21 01:34:20;;;;;;;;;;;;;;;18.96;64.63;101594.31;1041462;28;1866;-61
2022/05/21 01:35:10;;;;;;;;;;;;;;;18.96;64.37;101598.88;1041842;28;602;-61
2022/05/21 01:36:01;;;;;;;;;;;;;;;18.96;64.71;101598.88;1036551;28;629;-60
2022/05/21 01:36:51;;;;;;;;;;;;;;;18.97;63.88;101600.59;1040170;28;685;-59
2022/05/21 01:37:42;;;;;;;;;;;;;;;18.97;64.59;101595.19;1036730;28;706;-60
2022/05/21 01:38:32;;;;;;;;;;;;;;;18.96;64.85;101594.31;1038967;28;626;-60
2022/05/21 01:39:22;;;;;;;;;;;;;;;18.95;63.90;101592.63;1041317;28;735;-59
2022/05/21 01:40:13;;;;;;;;;;;;;;;18.95;64.30;101584.50;1041056;28;1481;-60
2022/05/21 01:41:03;;;;;;;;;;;;;;;18.95;64.99;101597.16;1040673;28;630;-60
2022/05/21 01:41:54;;;;;;;;;;;;;;;18.96;64.54;101596.16;1041731;28;669;-60
2022/05/21 01:44:37;;;;;;;;;;;;;;;18.94;64.66;101596.31;1037493;28;645;-60
2022/05/21 01:45:03;;;;;;;;;;;;;;;18.94;64.61;101600.84;1044066;28;1451;-60
2022/05/21 01:45:54;;;;;;;;;;;;;;;18.94;64.49;101595.44;1039632;28;914;-59
2022/05/21 01:46:44;;;;;;;;;;;;;;;18.93;64.13;101593.72;1041300;28;649;-59
2022/05/21 01:47:37;;;;;;;;;;;;;;;18.94;65.18;101590.03;1041226;28;646;-60
2022/05/21 01:48:27;;;;;;;;;;;;;;;18.94;64.72;101588.19;1041613;28;1213;-59
2022/05/21 01:49:18;;;;;;;;;;;;;;;18.94;64.75;101595.44;1043567;28;705;-59
2022/05/21 01:50:08;;;;;;;;;;;;;;;18.92;64.58;101592.03;1041185;28;629;-60
2022/05/21 01:50:59;;;;;;;;;;;;;;;18.92;64.05;101590.19;1040206;28;725;-60
2022/05/21 01:51:49;;;;;;;;;;;;;;;18.92;64.81;101598.28;1041204;28;629;-60
2022/05/21 01:52:39;;;;;;;;;;;;;;;18.92;64.20;101586.63;1041299;28;679;-59
2022/05/21 01:53:30;;;;;;;;;;;;;;;18.93;64.01;101588.34;1041232;28;692;-60
2022/05/21 01:54:20;;;;;;;;;;;;;;;18.92;64.77;101586.63;1041152;28;633;-60
2022/05/21 01:55:11;;;;;;;;;;;;;;;18.91;64.49;101588.47;1040239;28;826;-59
2022/05/21 01:56:01;;;;;;;;;;;;;;;18.91;64.15;101591.16;1039983;28;685;-59
2022/05/21 01:56:52;;;;;;;;;;;;;;;18.91;64.65;101591.16;1040214;28;676;-59
2022/05/21 01:57:42;;;;;;;;;;;;;;;18.91;64.31;101588.47;1040204;28;691;-59
2022/05/21 01:58:32;;;;;;;;;;;;;;;18.91;64.58;101591.16;1041138;28;696;-60
2022/05/21 01:59:23;;;;;;;;;;;;;;;18.90;64.20;101592.16;1041195;28;692;-59
2022/05/21 02:00:13;;;;;;;;;;;;;;;18.91;64.60;101599.28;1041836;28;630;-59
2022/05/21 02:01:04;;;;;;;;;;;;;;;18.91;64.93;101591.16;1040165;28;659;-60
2022/05/21 02:01:54;;;;;;;;;;;;;;;18.92;64.20;101598.28;1041268;28;711;-59
2022/05/21 02:02:44;;;;;;;;;;;;;;;18.90;64.51;101594.84;1041216;28;680;-59
2022/05/21 02:03:35;;;;;;;;;;;;;;;18.90;64.03;101599.41;1040227;28;650;-59
2022/05/21 02:04:25;;;;;;;;;;;;;;;18.90;64.31;101600.25;1039927;28;1894;-60
2022/05/21 02:05:16;;;;;;;;;;;;;;;18.90;64.15;101600.25;1037332;28;878;-60
2022/05/21 02:06:06;;;;;;;;;;;;;;;18.90;64.33;101592.16;1036319;28;645;-60
2022/05/21 02:06:57;;;;;;;;;;;;;;;18.89;64.22;101598.53;1035778;28;1442;-60
2022/05/21 02:07:47;;;;;;;;;;;;;;;18.90;64.79;101594.84;1040168;28;638;-60
2022/05/21 02:08:38;;;;;;;;;;;;;;;18.91;64.21;101599.28;1041624;28;1580;-59
2022/05/21 02:09:28;;;;;;;;;;;;;;;18.91;64.71;101603.81;1040599;28;672;-59
2022/05/21 02:10:19;;;;;;;;;;;;;;;18.89;64.58;101595.84;1041279;28;669;-59
2022/05/21 02:11:09;;;;;;;;;;;;;;;18.89;63.87;101600.38;1041134;28;622;-60
2022/05/21 02:12:00;;;;;;;;;;;;;;;18.90;64.63;101600.25;1041292;28;657;-59
2022/05/21 02:12:51;;;;;;;;;;;;;;;18.90;64.11;101596.69;1039906;28;748;-60
2022/05/21 02:13:41;;;;;;;;;;;;;;;18.90;64.22;101597.56;1041145;28;625;-60
2022/05/21 02:14:32;;;;;;;;;;;;;;;18.89;64.32;101597.69;1041210;28;665;-59
2022/05/21 02:15:22;;;;;;;;;;;;;;;18.89;64.37;101598.53;1041182;28;688;-59
2022/05/21 02:16:13;;;;;;;;;;;;;;;18.89;64.52;101608.50;1041149;28;637;-59
2022/05/21 02:17:03;;;;;;;;;;;;;;;18.88;64.60;101604.94;1041699;28;1392;-59
2022/05/21 02:17:54;;;;;;;;;;;;;;;18.88;64.32;101602.22;1044251;28;701;-60
2022/05/21 02:18:44;;;;;;;;;;;;;;;18.87;64.48;101600.53;1039983;28;740;-60
2022/05/21 02:19:34;;;;;;;;;;;;;;;18.88;63.74;101602.22;1040985;28;1392;-58
2022/05/21 02:20:25;;;;;;;;;;;;;;;18.87;64.64;101600.53;1044996;28;1743;-59
2022/05/21 02:21:17;;;;;;;;;;;;;;;18.88;64.15;101601.38;1044012;28;646;-59
2022/05/21 02:22:08;;;;;;;;;;;;;;;18.87;64.39;101605.06;1044744;28;680;-60
2022/05/21 02:22:58;;;;;;;;;;;;;;;18.87;63.75;101605.06;1044112;28;638;-59
2022/05/21 02:23:48;;;;;;;;;;;;;;;18.87;63.99;101605.06;1040615;28;642;-59
2022/05/21 02:24:39;;;;;;;;;;;;;;;18.87;64.20;101595.13;1036734;28;693;-60
2022/05/21 02:25:29;;;;;;;;;;;;;;;18.84;64.81;101595.38;1036746;28;654;-59
2022/05/21 02:26:20;;;;;;;;;;;;;;;18.84;64.74;101595.38;1037256;28;717;-60
2022/05/21 02:27:10;;;;;;;;;;;;;;;18.85;64.42;101593.53;1041147;28;689;-59
2022/05/21 02:28:00;;;;;;;;;;;;;;;18.84;64.67;101586.44;1040154;28;736;-59
2022/05/21 02:28:51;;;;;;;;;;;;;;;18.87;64.47;101605.94;1041132;28;740;-60
2022/05/21 02:29:41;;;;;;;;;;;;;;;18.87;64.11;101595.13;1041128;28;701;-59
2022/05/21 02:30:32;;;;;;;;;;;;;;;18.88;64.36;101602.22;1044113;28;1625;-60
2022/05/21 02:31:22;;;;;;;;;;;;;;;18.87;64.38;101599.66;1044108;28;634;-59
2022/05/21 02:32:14;;;;;;;;;;;;;;;18.85;64.88;101596.25;1045366;28;680;-61
2022/05/21 02:33:05;;;;;;;;;;;;;;;18.85;64.40;101598.94;1043875;28;713;-59
2022/05/21 02:33:55;;;;;;;;;;;;;;;18.86;64.03;101593.41;1045215;28;629;-59
2022/05/21 02:34:45;;;;;;;;;;;;;;;18.85;64.81;101599.78;1045228;28;659;-59
2022/05/21 02:35:36;;;;;;;;;;;;;;;18.85;64.20;101596.25;1041647;28;619;-59
2022/05/21 02:39:54;;;;;;;;;;;;;;;18.86;64.37;101606.06;1043295;28;1388;-59
2022/05/21 02:40:44;;;;;;;;;;;;;;;18.85;64.50;101609.75;1044779;28;666;-59
2022/05/21 02:41:36;;;;;;;;;;;;;;;18.85;64.14;101607.91;1047327;28;1290;-59
2022/05/21 02:42:45;;;;;;;;;;;;;;;18.85;64.08;101607.91;1041760;28;1560;-59
2022/05/21 02:43:36;;;;;;;;;;;;;;;18.83;65.04;101609.88;1043165;28;1412;-60
2022/05/21 02:44:26;;;;;;;;;;;;;;;18.83;64.47;101615.28;1044531;28;1910;-59
2022/05/21 02:45:17;;;;;;;;;;;;;;;18.82;63.88;101605.47;1040755;28;637;-61
2022/05/21 02:46:07;;;;;;;;;;;;;;;18.83;64.00;101609.03;1044051;28;1732;-61
2022/05/21 02:46:58;;;;;;;;;;;;;;;18.83;64.24;101609.03;1044273;28;695;-61
2022/05/21 02:47:48;;;;;;;;;;;;;;;18.83;64.14;101609.03;1044790;28;661;-60
2022/05/21 02:48:39;;;;;;;;;;;;;;;18.83;64.20;101607.19;1042253;28;1180;-61
2022/05/21 02:49:30;;;;;;;;;;;;;;;18.82;64.89;101602.75;1040562;28;674;-60
2022/05/21 02:50:20;;;;;;;;;;;;;;;18.84;64.00;101611.59;1041438;28;1572;-60
2022/05/21 02:51:11;;;;;;;;;;;;;;;18.83;64.21;101612.56;1039615;28;1377;-60
2022/05/21 02:52:01;;;;;;;;;;;;;;;18.82;64.64;101602.75;1041256;28;755;-61
2022/05/21 02:52:51;;;;;;;;;;;;;;;18.84;64.36;101610.72;1036548;28;654;-60
2022/05/21 02:53:42;;;;;;;;;;;;;;;18.84;64.44;101608.88;1035546;28;658;-60
2022/05/21 02:54:32;;;;;;;;;;;;;;;18.84;64.63;101611.59;1039283;28;689;-61
2022/05/21 02:55:23;;;;;;;;;;;;;;;18.83;64.05;101607.19;1040598;28;673;-61
2022/05/21 02:56:14;;;;;;;;;;;;;;;18.84;64.00;101610.72;1040572;28;689;-60
2022/05/21 02:57:04;;;;;;;;;;;;;;;18.81;64.14;101611.03;1041088;28;663;-59
2022/05/21 02:57:54;;;;;;;;;;;;;;;18.81;64.45;101601.03;1037183;28;697;-60
2022/05/21 02:58:45;;;;;;;;;;;;;;;18.80;64.91;101612.03;1037753;28;751;-59
2022/05/21 02:59:35;;;;;;;;;;;;;;;18.81;64.46;101605.63;1041092;28;642;-58
2022/05/21 03:00:26;;;;;;;;;;;;;;;18.80;64.97;101612.88;1042064;28;1716;-59
2022/05/21 03:01:16;;;;;;;;;;;;;;;18.80;64.56;101604.78;1041950;28;886;-59
2022/05/21 03:02:06;;;;;;;;;;;;;;;18.79;63.72;101603.06;1041894;28;646;-59
2022/05/21 03:02:57;;;;;;;;;;;;;;;18.80;64.75;101603.91;1041845;28;668;-59
2022/05/21 03:03:47;;;;;;;;;;;;;;;18.79;64.32;101600.34;1038089;28;689;-59
2022/05/21 03:04:38;;;;;;;;;;;;;;;18.79;63.88;101605.75;1037416;28;717;-58
2022/05/21 03:05:31;;;;;;;;;;;;;;;18.78;64.24;101604.03;1041744;28;649;-59
2022/05/21 03:06:22;;;;;;;;;;;;;;;18.76;64.11;101597.91;1042373;28;665;-59
2022/05/21 03:07:12;;;;;;;;;;;;;;;18.77;64.12;101606.88;1037940;28;690;-59
2022/05/21 03:10:20;;;;;;;;;;;;;;;18.76;64.35;101608.72;1036955;28;689;-60
2022/05/21 03:10:22;;;;;;;;;;;;;;;18.77;64.66;101602.34;1041251;28;1500;-58
2022/05/21 03:11:12;;;;;;;;;;;;;;;18.77;63.94;101613.13;1041956;28;613;-59
2022/05/21 03:12:03;;;;;;;;;;;;;;;18.77;64.14;101601.47;1042267;28;696;-59
2022/05/21 03:12:53;;;;;;;;;;;;;;;18.77;64.40;101607.72;1043245;28;701;-59
2022/05/21 03:13:44;;;;;;;;;;;;;;;18.76;64.09;101606.03;1042294;28;760;-59
2022/05/21 03:14:34;;;;;;;;;;;;;;;18.76;65.02;101611.41;1042061;28;684;-60
2022/05/21 03:15:24;;;;;;;;;;;;;;;18.75;63.61;101608.84;1040812;28;668;-59
2022/05/21 03:16:15;;;;;;;;;;;;;;;18.75;64.55;101611.56;1041815;28;661;-60
2022/05/21 03:17:05;;;;;;;;;;;;;;;18.75;64.04;101600.75;1041018;28;626;-60
2022/05/21 03:17:56;;;;;;;;;;;;;;;18.74;63.87;101610.69;1040971;28;740;-60
2022/05/21 03:18:46;;;;;;;;;;;;;;;18.73;64.69;101604.44;1041302;28;665;-59
2022/05/21 03:19:37;;;;;;;;;;;;;;;18.76;63.98;101610.56;1040678;28;721;-59
2022/05/21 03:20:27;;;;;;;;;;;;;;;18.74;64.10;101613.41;1044746;28;1763;-59
2022/05/21 03:21:18;;;;;;;;;;;;;;;18.75;63.99;101607.00;1044905;28;641;-60
2022/05/21 03:22:08;;;;;;;;;;;;;;;18.75;64.02;101615.09;1044805;28;1661;-60
2022/05/21 03:22:59;;;;;;;;;;;;;;;18.74;64.54;101616.09;1042432;28;669;-60
2022/05/21 03:23:49;;;;;;;;;;;;;;;18.75;64.06;101612.41;1041767;28;773;-61
2022/05/21 03:24:39;;;;;;;;;;;;;;;18.73;64.97;101615.25;1042320;28;762;-60
2022/05/21 03:25:30;;;;;;;;;;;;;;;18.74;63.99;101613.41;1041740;28;629;-64
2022/05/21 03:26:20;;;;;;;;;;;;;;;18.73;64.22;101611.69;1041728;28;661;-61
2022/05/21 03:27:11;;;;;;;;;;;;;;;18.74;64.28;101605.28;1041826;28;669;-61
2022/05/21 03:28:01;;;;;;;;;;;;;;;18.73;64.03;101607.13;1041705;28;642;-61
2022/05/21 03:28:52;;;;;;;;;;;;;;;18.73;64.07;101608.97;1042301;28;665;-61
2022/05/21 03:29:42;;;;;;;;;;;;;;;18.72;63.56;101609.97;1041764;28;652;-60
2022/05/21 03:30:33;;;;;;;;;;;;;;;18.71;64.16;101606.41;1045533;28;1775;-60
2022/05/21 03:31:26;;;;;;;;;;;;;;;18.70;64.49;101606.53;1044668;28;657;-61
2022/05/21 03:32:16;;;;;;;;;;;;;;;18.71;64.41;101605.56;1045373;28;661;-60
2022/05/21 03:33:07;;;;;;;;;;;;;;;18.70;64.41;101604.69;1044827;28;807;-60
2022/05/21 03:33:57;;;;;;;;;;;;;;;18.68;63.82;101613.91;1044593;28;685;-61
2022/05/21 03:34:47;;;;;;;;;;;;;;;18.69;64.47;101613.78;1042001;28;652;-61
2022/05/21 03:35:38;;;;;;;;;;;;;;;18.69;64.56;101604.84;1040488;28;638;-60
2022/05/21 03:36:28;;;;;;;;;;;;;;;18.68;63.61;101611.22;1043574;28;669;-61
2022/05/21 03:37:19;;;;;;;;;;;;;;;18.69;63.70;101607.53;1042081;28;672;-61
2022/05/21 03:38:09;;;;;;;;;;;;;;;18.69;63.97;101608.38;1040248;28;677;-60
2022/05/21 03:39:00;;;;;;;;;;;;;;;18.70;64.10;101606.53;1040770;28;737;-61
2022/05/21 03:39:50;;;;;;;;;;;;;;;18.71;64.06;101617.22;1041201;28;1759;-60
2022/05/21 03:40:41;;;;;;;;;;;;;;;18.70;64.23;101611.94;1037601;28;934;-61
2022/05/21 03:41:31;;;;;;;;;;;;;;;18.69;63.73;101612.94;1040442;28;621;-61
2022/05/21 03:42:22;;;;;;;;;;;;;;;18.69;63.80;101607.53;1040430;28;1299;-60
2022/05/21 03:43:12;;;;;;;;;;;;;;;18.68;63.95;101609.38;1040551;28;666;-59
2022/05/21 03:44:02;;;;;;;;;;;;;;;18.68;63.94;101608.53;1040552;28;670;-61
2022/05/21 03:44:53;;;;;;;;;;;;;;;18.68;64.68;101612.06;1040578;28;677;-60
2022/05/21 03:45:43;;;;;;;;;;;;;;;18.68;63.94;101613.91;1040409;28;713;-61
2022/05/21 03:46:38;;;;;;;;;;;;;;;18.67;63.95;101613.06;1040539;28;799;-61
2022/05/21 03:47:28;;;;;;;;;;;;;;;18.66;64.01;101611.34;1041822;28;864;-62
2022/05/21 03:48:19;;;;;;;;;;;;;;;18.64;64.36;101616.03;1040658;28;712;-61
2022/05/21 03:49:09;;;;;;;;;;;;;;;18.65;64.04;101622.28;1040494;28;661;-62
2022/05/21 03:50:00;;;;;;;;;;;;;;;18.65;64.22;101617.72;1040505;28;1689;-61
2022/05/21 03:50:50;;;;;;;;;;;;;;;18.65;63.63;101612.34;1042430;28;651;-61
2022/05/21 03:51:41;;;;;;;;;;;;;;;18.63;63.66;101614.31;1048481;28;630;-61
2022/05/21 03:52:31;;;;;;;;;;;;;;;18.64;63.56;101621.41;1047847;28;713;-61
2022/05/21 03:53:22;;;;;;;;;;;;;;;18.65;64.09;101620.44;1049578;28;650;-61
2022/05/21 03:54:12;;;;;;;;;;;;;;;18.65;64.11;101617.72;1046944;28;634;-61
2022/05/21 03:55:02;;;;;;;;;;;;;;;18.65;64.02;101622.28;1045530;28;642;-62
2022/05/21 03:55:54;;;;;;;;;;;;;;;18.65;63.86;101623.13;1045688;28;720;-62
2022/05/21 03:56:44;;;;;;;;;;;;;;;18.64;63.86;101618.72;1046193;28;741;-62
2022/05/21 03:57:34;;;;;;;;;;;;;;;18.64;64.17;101615.16;1044857;28;653;-62
2022/05/21 03:58:25;;;;;;;;;;;;;;;18.65;63.66;101619.56;1045003;28;650;-62
2022/05/21 03:59:15;;;;;;;;;;;;;;;18.66;64.24;101618.59;1044659;28;919;-62
2022/05/21 04:00:06;;;;;;;;;;;;;;;18.67;64.10;101631.09;1040597;28;1517;-61
2022/05/21 04:00:56;;;;;;;;;;;;;;;18.66;63.78;101627.53;1041790;28;660;-60
2022/05/21 04:01:47;;;;;;;;;;;;;;;18.68;63.76;101620.19;1041781;28;728;-60
2022/05/21 04:02:37;;;;;;;;;;;;;;;18.68;64.01;101622.03;1042375;28;693;-60
2022/05/21 04:03:28;;;;;;;;;;;;;;;18.68;64.29;101627.41;1044587;28;1249;-60
2022/05/21 04:04:18;;;;;;;;;;;;;;;18.68;63.74;101632.81;1039469;28;1890;-60
2022/05/21 04:05:08;;;;;;;;;;;;;;;18.67;63.50;101625.69;1036702;28;841;-60
2022/05/21 04:05:59;;;;;;;;;;;;;;;18.67;63.39;101625.69;1042226;28;1245;-60
2022/05/21 04:06:49;;;;;;;;;;;;;;;18.67;63.89;101636.50;1043737;28;1080;-60
2022/05/21 04:07:40;;;;;;;;;;;;;;;18.66;64.62;101634.78;1041620;28;1390;-60
2022/05/21 04:08:30;;;;;;;;;;;;;;;18.66;63.40;101632.09;1041134;28;1088;-61
2022/05/21 04:09:20;;;;;;;;;;;;;;;18.66;64.11;101637.50;1043128;28;1150;-61
2022/05/21 04:10:11;;;;;;;;;;;;;;;18.65;64.42;101642.03;1044788;28;1099;-61
2022/05/21 04:11:02;;;;;;;;;;;;;;;18.66;63.60;101640.19;1043777;28;1096;-61
2022/05/21 04:11:53;;;;;;;;;;;;;;;18.65;63.73;101633.94;1036906;28;1084;-60
2022/05/21 04:12:43;;;;;;;;;;;;;;;18.69;63.32;101634.53;1040005;28;1103;-60
2022/05/21 04:13:34;;;;;;;;;;;;;;;18.69;64.22;101637.22;1044767;28;1134;-61
2022/05/21 04:14:27;;;;;;;;;;;;;;;18.68;63.74;101649.88;1043591;28;1067;-61
2022/05/21 04:15:18;;;;;;;;;;;;;;;18.68;64.50;101643.63;1041485;28;1162;-60
2022/05/21 04:16:08;;;;;;;;;;;;;;;18.67;63.87;101636.50;1043508;28;1138;-61
2022/05/21 04:16:59;;;;;;;;;;;;;;;18.66;64.33;101641.03;1043218;28;1197;-60
2022/05/21 04:17:50;;;;;;;;;;;;;;;18.66;63.69;101645.59;1042152;28;1083;-60
2022/05/21 04:18:40;;;;;;;;;;;;;;;18.65;63.69;101639.34;1045173;28;1154;-60
2022/05/21 04:19:31;;;;;;;;;;;;;;;18.66;63.64;101649.16;1043324;28;1141;-60
2022/05/21 04:20:23;;;;;;;;;;;;;;;18.66;64.10;101642.88;1041525;28;647;-60
2022/05/21 04:21:13;;;;;;;;;;;;;;;18.66;64.21;101643.75;1038585;28;1099;-60
2022/05/21 04:22:03;;;;;;;;;;;;;;;18.66;64.32;101648.28;1038964;28;1099;-60
2022/05/21 04:22:54;;;;;;;;;;;;;;;18.67;63.45;101645.47;1040057;28;1143;-60
2022/05/21 04:23:44;;;;;;;;;;;;;;;18.66;63.75;101642.88;1040004;28;1142;-60
2022/05/21 04:24:35;;;;;;;;;;;;;;;18.65;63.68;101647.44;1039664;28;1894;-60
2022/05/21 04:25:25;;;;;;;;;;;;;;;18.65;63.28;101644.72;1039890;28;1084;-60
2022/05/21 04:26:15;;;;;;;;;;;;;;;18.67;63.31;101653.56;1036912;28;1122;-60
2022/05/21 04:27:07;;;;;;;;;;;;;;;18.67;63.30;101652.69;1038889;28;1096;-60
2022/05/21 04:27:58;;;;;;;;;;;;;;;18.67;63.57;101653.56;1041443;28;1147;-60
2022/05/21 04:28:48;;;;;;;;;;;;;;;18.67;63.28;101653.56;1039487;28;1146;-60
2022/05/21 04:29:39;;;;;;;;;;;;;;;18.67;63.91;101650.84;1043637;28;1232;-60
2022/05/21 04:30:29;;;;;;;;;;;;;;;18.67;63.72;101652.69;1038322;28;1565;-61
2022/05/21 04:31:20;;;;;;;;;;;;;;;18.67;64.21;101653.56;1037957;28;1096;-61
2022/05/21 04:32:10;;;;;;;;;;;;;;;18.67;63.26;101655.41;1038900;28;1327;-61
2022/05/21 04:33:00;;;;;;;;;;;;;;;18.69;63.62;101664.22;1038856;28;1095;-60
2022/05/21 04:33:51;;;;;;;;;;;;;;;18.69;63.50;101662.38;1039453;28;1008;-61